Time;durP1;ratioP1;P1;durP2;ratioP2;P2;SDS_P1;SDS_P2;PMS_P1;PMS_P2;Temp;Humidity;BMP_temperature;BMP_pressure;BME280_temperature;BME280_humidity;BME280_pressure;Samples;Min_cycle;Max_cycle;Signal;HPM_P1;HPM_P2
2021/01/20 00:01:26;;;;;;;10.50;4.88;;;1.80;90.00;;;;;;6184906;23;20028;-82
2021/01/20 00:03:52;;;;;;;11.48;5.30;;;1.70;89.50;;;;;;6186358;23;20084;-82
2021/01/20 00:06:17;;;;;;;13.13;5.70;;;1.60;89.50;;;;;;6184458;23;20409;-82
2021/01/20 00:08:43;;;;;;;14.02;6.25;;;1.60;90.00;;;;;;6185243;23;20013;-82
2021/01/20 00:11:12;;;;;;;10.00;5.00;;;1.50;89.50;;;;;;6185291;23;20323;-80
2021/01/20 00:13:37;;;;;;;17.42;7.55;;;1.50;89.60;;;;;;6184600;23;20017;-81
2021/01/20 00:16:03;;;;;;;17.80;6.53;;;1.50;89.60;;;;;;6185164;23;20331;-82
2021/01/20 00:18:32;;;;;;;17.83;6.60;;;1.40;89.70;;;;;;6185018;23;20009;-82
2021/01/20 00:20:58;;;;;;;13.45;4.93;;;1.40;89.60;;;;;;6185148;23;20007;-82
2021/01/20 00:23:23;;;;;;;13.40;5.32;;;1.40;89.60;;;;;;6186219;23;20085;-82
2021/01/20 00:25:49;;;;;;;12.77;5.82;;;1.30;89.60;;;;;;6184813;23;20009;-82
2021/01/20 00:28:14;;;;;;;14.18;5.68;;;1.20;89.40;;;;;;6159467;23;20016;-82
2021/01/20 00:30:40;;;;;;;15.80;7.00;;;1.20;89.60;;;;;;6184373;23;20087;-82
2021/01/20 00:33:06;;;;;;;14.98;6.53;;;1.10;89.60;;;;;;6186014;23;20339;-82
2021/01/20 00:35:31;;;;;;;13.95;6.80;;;1.10;89.60;;;;;;6159881;23;20012;-82
2021/01/20 00:37:57;;;;;;;12.38;5.97;;;1.10;89.60;;;;;;6184808;23;20033;-82
2021/01/20 00:40:23;;;;;;;14.07;6.38;;;1.00;89.50;;;;;;6184378;23;20052;-82
2021/01/20 00:42:48;;;;;;;13.57;6.00;;;1.00;89.70;;;;;;6184272;23;20005;-82
2021/01/20 00:45:14;;;;;;;11.45;4.78;;;1.00;89.90;;;;;;6159799;23;20014;-81
2021/01/20 00:47:40;;;;;;;14.95;6.88;;;0.90;90.00;;;;;;6184117;23;20008;-81
2021/01/20 00:50:06;;;;;;;13.27;5.57;;;1.00;90.10;;;;;;6184423;23;20483;-81
2021/01/20 00:52:32;;;;;;;13.40;5.95;;;1.00;90.10;;;;;;6159507;23;20024;-82
2021/01/20 00:54:58;;;;;;;14.98;6.28;;;1.00;90.10;;;;;;6184092;23;20440;-82
2021/01/20 00:57:23;;;;;;;11.95;5.30;;;0.90;90.10;;;;;;6183713;23;20017;-82
2021/01/20 00:59:49;;;;;;;13.40;5.65;;;1.00;90.20;;;;;;6184558;23;20012;-82
2021/01/20 01:02:15;;;;;;;12.10;4.85;;;1.00;90.20;;;;;;6184508;23;20044;-82
2021/01/20 01:04:41;;;;;;;10.75;5.07;;;1.00;90.20;;;;;;6159671;23;20340;-82
2021/01/20 01:07:09;;;;;;;13.27;5.38;;;1.00;90.20;;;;;;6184217;23;20001;-82
2021/01/20 01:09:36;;;;;;;15.98;5.45;;;0.90;90.20;;;;;;6184140;23;20008;-82
2021/01/20 01:12:03;;;;;;;14.50;5.63;;;1.00;90.20;;;;;;6184223;23;20005;-82
2021/01/20 01:14:28;;;;;;;12.00;5.75;;;1.00;90.20;;;;;;6184354;23;20091;-81
2021/01/20 01:16:54;;;;;;;15.52;6.18;;;1.00;90.20;;;;;;6183901;23;20428;-82
2021/01/20 01:19:20;;;;;;;13.93;5.97;;;1.00;90.30;;;;;;6184032;23;20328;-82
2021/01/20 01:21:51;;;;;;;13.27;5.25;;;1.00;90.30;;;;;;6183750;23;20023;-82
2021/01/20 01:24:17;;;;;;;10.98;4.85;;;1.00;90.40;;;;;;6159722;23;20096;-82
2021/01/20 01:26:43;;;;;;;13.90;5.38;;;1.00;90.30;;;;;;6183921;23;20091;-81
2021/01/20 01:29:08;;;;;;;11.63;5.05;;;1.00;90.40;;;;;;6183741;23;20028;-82
2021/01/20 01:31:34;;;;;;;11.50;5.03;;;1.00;90.30;;;;;;6185353;23;20015;-81
2021/01/20 01:33:59;;;;;;;12.40;4.88;;;1.00;90.30;;;;;;6159270;23;20091;-81
2021/01/20 01:36:25;;;;;;;13.35;4.50;;;1.00;90.30;;;;;;6158717;23;20317;-81
2021/01/20 01:38:50;;;;;;;11.80;4.35;;;1.00;90.30;;;;;;6159134;23;20009;-81
2021/01/20 01:41:16;;;;;;;11.20;4.95;;;1.00;90.20;;;;;;6183650;23;20019;-81
2021/01/20 01:43:41;;;;;;;9.00;4.05;;;1.00;90.30;;;;;;6184011;23;20336;-82
2021/01/20 01:46:07;;;;;;;11.50;4.57;;;1.00;90.30;;;;;;6183891;23;20028;-81
2021/01/20 01:48:33;;;;;;;12.18;5.30;;;1.00;90.30;;;;;;6159108;23;20092;-82
2021/01/20 01:50:58;;;;;;;9.85;4.35;;;0.90;90.30;;;;;;6159069;23;20013;-82
2021/01/20 01:53:24;;;;;;;12.00;4.20;;;0.90;90.20;;;;;;6159411;23;20032;-81
2021/01/20 01:55:50;;;;;;;11.63;4.45;;;0.90;90.20;;;;;;6158999;23;20527;-82
2021/01/20 01:58:15;;;;;;;12.27;4.43;;;0.90;90.10;;;;;;6183233;23;20016;-81
2021/01/20 02:00:41;;;;;;;8.55;3.70;;;0.80;90.10;;;;;;6159071;23;20059;-81
2021/01/20 02:03:07;;;;;;;9.13;3.88;;;0.70;90.10;;;;;;6183679;23;20005;-81
2021/01/20 02:05:33;;;;;;;11.65;4.53;;;0.70;90.40;;;;;;6183632;23;20383;-83
2021/01/20 02:07:59;;;;;;;10.93;4.15;;;0.70;90.20;;;;;;6159025;23;20009;-83
2021/01/20 02:10:25;;;;;;;11.60;4.90;;;0.70;90.20;;;;;;6158741;23;20017;-83
2021/01/20 02:12:57;;;;;;;12.50;4.78;;;0.70;90.30;;;;;;6183810;23;20308;-83
2021/01/20 02:15:55;;;;;;;12.07;4.93;;;0.80;90.30;;;;;;6183776;23;20071;-83
2021/01/20 02:18:26;;;;;;;10.35;4.72;;;0.70;90.20;;;;;;6148493;23;20075;-83
2021/01/20 02:21:16;;;;;;;9.85;4.25;;;0.70;90.50;;;;;;6183671;23;20088;-83
2021/01/20 02:23:43;;;;;;;11.15;4.60;;;0.70;90.20;;;;;;6182999;23;20088;-83
2021/01/20 02:26:13;;;;;;;11.90;4.78;;;0.70;90.20;;;;;;6183697;23;20068;-83
2021/01/20 02:28:51;;;;;;;10.10;4.70;;;0.60;90.20;;;;;;6183482;23;20332;-83
2021/01/20 02:31:18;;;;;;;10.35;4.00;;;0.60;90.20;;;;;;6183576;23;20453;-83
2021/01/20 02:33:46;;;;;;;11.90;4.30;;;0.60;90.20;;;;;;6183403;23;20017;-83
2021/01/20 02:36:13;;;;;;;10.18;4.38;;;0.50;90.20;;;;;;6158691;23;20037;-83
2021/01/20 02:38:40;;;;;;;10.13;4.13;;;0.50;90.20;;;;;;6159096;23;20054;-83
2021/01/20 02:41:05;;;;;;;13.52;4.35;;;0.60;90.30;;;;;;6183621;23;20152;-84
2021/01/20 02:43:31;;;;;;;10.35;4.53;;;0.60;90.30;;;;;;6159115;23;20033;-84
2021/01/20 02:45:57;;;;;;;11.25;4.85;;;0.60;90.30;;;;;;6158928;23;20336;-84
2021/01/20 02:48:22;;;;;;;11.43;5.13;;;0.50;90.20;;;;;;6184643;23;20009;-83
2021/01/20 02:50:48;;;;;;;10.65;4.57;;;0.50;90.20;;;;;;6160760;23;20413;-83
2021/01/20 02:53:17;;;;;;;10.75;4.82;;;0.50;90.20;;;;;;6160530;23;20028;-83
2021/01/20 02:56:05;;;;;;;12.30;4.60;;;0.50;90.20;;;;;;6185397;23;20012;-81
2021/01/20 02:58:32;;;;;;;9.90;4.35;;;0.50;90.30;;;;;;6185138;23;20021;-81
2021/01/20 03:01:00;;;;;;;10.00;4.05;;;0.50;90.30;;;;;;6185323;23;20015;-82
2021/01/20 03:03:28;;;;;;;9.18;3.92;;;0.50;90.40;;;;;;6185830;23;20055;-83
2021/01/20 03:05:54;;;;;;;9.68;3.85;;;0.50;90.40;;;;;;6186411;23;20001;-84
2021/01/20 03:08:22;;;;;;;11.10;4.28;;;0.50;90.40;;;;;;6160668;23;20020;-84
2021/01/20 03:10:48;;;;;;;10.35;3.85;;;0.50;90.40;;;;;;6185676;23;20076;-84
2021/01/20 03:13:15;;;;;;;9.43;3.95;;;0.60;90.50;;;;;;6185570;23;20435;-84
2021/01/20 03:15:42;;;;;;;8.30;3.67;;;0.60;90.40;;;;;;6185131;23;19997;-84
2021/01/20 03:18:08;;;;;;;8.50;3.72;;;0.50;90.40;;;;;;6160636;23;20037;-84
2021/01/20 03:20:35;;;;;;;10.77;3.97;;;0.60;90.40;;;;;;6186263;23;20034;-83
2021/01/20 03:23:01;;;;;;;9.20;4.25;;;0.60;90.40;;;;;;6186211;23;20012;-83
2021/01/20 03:25:28;;;;;;;10.88;3.95;;;0.50;90.40;;;;;;6185714;23;20021;-83
2021/01/20 03:27:54;;;;;;;8.80;4.03;;;0.60;90.50;;;;;;6185449;23;20007;-82
2021/01/20 03:30:20;;;;;;;10.73;4.03;;;0.60;90.50;;;;;;6186551;23;20001;-81
2021/01/20 03:32:49;;;;;;;9.60;4.10;;;0.60;90.40;;;;;;6184929;23;20016;-81
2021/01/20 03:35:15;;;;;;;11.30;4.88;;;0.60;90.50;;;;;;6186685;23;20379;-81
2021/01/20 03:37:44;;;;;;;11.35;4.82;;;0.60;90.50;;;;;;6185056;23;20071;-81
2021/01/20 03:40:10;;;;;;;13.63;4.72;;;0.60;90.50;;;;;;6185286;23;20040;-81
2021/01/20 03:42:36;;;;;;;10.07;4.13;;;0.60;90.40;;;;;;6184760;23;20009;-81
2021/01/20 03:45:02;;;;;;;12.30;4.85;;;0.60;90.40;;;;;;6184912;23;20515;-81
2021/01/20 03:47:28;;;;;;;10.98;4.57;;;0.50;90.40;;;;;;6186726;23;19994;-82
2021/01/20 03:49:53;;;;;;;11.70;4.00;;;0.60;90.40;;;;;;6185306;23;20013;-81
2021/01/20 03:52:19;;;;;;;11.32;4.93;;;0.50;90.40;;;;;;6160056;23;20012;-81
2021/01/20 03:54:44;;;;;;;12.23;4.18;;;0.50;90.40;;;;;;6159929;23;20024;-81
2021/01/20 03:57:10;;;;;;;11.43;4.03;;;0.50;90.40;;;;;;6159658;23;20052;-81
2021/01/20 03:59:36;;;;;;;10.70;4.05;;;0.50;90.40;;;;;;6160065;23;20020;-81
2021/01/20 04:02:05;;;;;;;10.77;4.18;;;0.50;90.40;;;;;;6185067;23;20070;-81
2021/01/20 04:04:31;;;;;;;10.82;4.38;;;0.40;90.30;;;;;;6184839;23;20020;-82
2021/01/20 04:06:57;;;;;;;10.73;4.13;;;0.40;90.40;;;;;;6186756;23;20032;-82
2021/01/20 04:09:24;;;;;;;11.05;4.10;;;0.40;90.40;;;;;;6186052;23;20013;-82
2021/01/20 04:11:49;;;;;;;11.23;4.28;;;0.40;90.50;;;;;;6184719;23;20033;-82
2021/01/20 04:14:15;;;;;;;9.98;4.22;;;0.50;90.50;;;;;;6159826;23;20020;-84
2021/01/20 04:16:42;;;;;;;12.05;4.95;;;0.50;90.50;;;;;;6184294;23;20036;-84
2021/01/20 04:19:08;;;;;;;14.90;5.00;;;0.40;90.50;;;;;;6185186;23;20088;-84
2021/01/20 04:21:33;;;;;;;12.40;4.25;;;0.50;90.50;;;;;;6159717;23;20495;-83
2021/01/20 04:23:59;;;;;;;9.50;3.80;;;0.50;90.50;;;;;;6184872;23;20036;-82
2021/01/20 04:26:25;;;;;;;12.05;4.07;;;0.40;90.50;;;;;;6184494;23;20076;-81
2021/01/20 04:28:50;;;;;;;9.30;4.20;;;0.40;90.50;;;;;;6184503;23;20063;-82
2021/01/20 04:31:16;;;;;;;11.52;4.32;;;0.40;90.50;;;;;;6159604;23;20331;-82
2021/01/20 04:33:41;;;;;;;10.32;4.47;;;0.40;90.40;;;;;;6159680;23;20021;-81
2021/01/20 04:36:07;;;;;;;10.05;4.18;;;0.40;90.40;;;;;;6184572;23;20317;-81
2021/01/20 04:38:34;;;;;;;8.43;3.47;;;0.40;90.50;;;;;;6184157;23;20013;-81
2021/01/20 04:41:00;;;;;;;9.85;3.53;;;0.40;90.40;;;;;;6184795;23;20085;-81
2021/01/20 04:43:26;;;;;;;9.95;4.22;;;0.40;90.40;;;;;;6159351;23;20372;-82
2021/01/20 04:45:52;;;;;;;10.27;3.42;;;0.30;90.40;;;;;;6184441;23;20048;-81
2021/01/20 04:48:19;;;;;;;11.50;4.65;;;0.30;90.40;;;;;;6184359;23;20028;-82
2021/01/20 04:50:47;;;;;;;12.95;4.32;;;0.30;90.40;;;;;;6183990;23;20014;-82
2021/01/20 04:53:14;;;;;;;8.30;3.50;;;0.30;90.40;;;;;;6184244;23;20005;-82
2021/01/20 04:55:44;;;;;;;9.05;3.88;;;0.30;90.40;;;;;;6184086;23;20107;-85
2021/01/20 04:58:10;;;;;;;10.40;3.88;;;0.30;90.50;;;;;;6183756;23;20025;-81
2021/01/20 05:00:38;;;;;;;10.63;4.30;;;0.30;90.50;;;;;;6159128;23;20017;-82
2021/01/20 05:03:05;;;;;;;9.98;4.30;;;0.40;90.60;;;;;;6186140;23;20001;-82
2021/01/20 05:05:31;;;;;;;9.18;3.95;;;0.30;90.60;;;;;;6184227;23;20399;-82
2021/01/20 05:07:57;;;;;;;8.88;3.90;;;0.40;90.60;;;;;;6159404;23;20005;-82
2021/01/20 05:10:22;;;;;;;8.93;3.67;;;0.40;90.60;;;;;;6159594;23;20009;-81
2021/01/20 05:12:48;;;;;;;68.68;28.67;;;0.40;90.60;;;;;;6158914;23;20420;-81
2021/01/20 05:15:17;;;;;;;13.75;5.75;;;0.40;90.60;;;;;;6159446;23;20020;-81
2021/01/20 05:17:57;;;;;;;14.23;5.25;;;0.40;90.60;;;;;;6184169;23;20013;-82
2021/01/20 05:20:31;;;;;;;9.13;3.65;;;0.50;90.60;;;;;;6185269;23;20029;-82
2021/01/20 05:23:08;;;;;;;11.15;3.97;;;0.50;90.70;;;;;;6184196;23;20023;-81
2021/01/20 05:25:44;;;;;;;8.32;3.83;;;0.50;90.60;;;;;;6184563;23;20031;-81
2021/01/20 05:28:24;;;;;;;10.30;4.38;;;0.50;90.70;;;;;;6183446;23;20376;-82
2021/01/20 05:30:55;;;;;;;10.35;4.18;;;0.50;90.70;;;;;;6184994;23;20070;-82
2021/01/20 05:33:26;;;;;;;10.35;4.18;;;0.60;90.70;;;;;;6183635;23;20016;-82
2021/01/20 05:36:11;;;;;;;9.98;4.03;;;0.50;90.60;;;;;;6183995;23;20336;-82
2021/01/20 05:38:41;;;;;;;;;;;0.60;90.70;;;;;;6184295;23;20013;-82
2021/01/20 05:41:25;;;;;;;9.90;3.60;;;0.50;90.60;;;;;;6183809;23;19950;-82
2021/01/20 05:44:15;;;;;;;8.43;3.83;;;0.50;90.60;;;;;;6183367;23;20462;-82
2021/01/20 05:46:42;;;;;;;9.35;3.83;;;0.50;90.60;;;;;;6185542;23;20069;-82
2021/01/20 05:49:29;;;;;;;8.82;4.13;;;0.50;90.60;;;;;;6184072;23;20136;-82
2021/01/20 05:51:55;;;;;;;12.88;4.18;;;0.50;90.50;;;;;;6184280;23;20032;-82
2021/01/20 05:54:31;;;;;;;11.35;4.43;;;0.40;90.50;;;;;;6159540;23;20017;-82
2021/01/20 05:57:15;;;;;;;9.18;4.25;;;0.40;90.50;;;;;;6183911;23;20016;-82
2021/01/20 05:59:42;;;;;;;9.82;3.88;;;0.40;90.50;;;;;;6183598;23;20059;-82
2021/01/20 06:02:09;;;;;;;11.88;4.72;;;0.40;90.60;;;;;;6183626;23;20009;-81
2021/01/20 06:04:36;;;;;;;9.60;4.63;;;0.40;90.50;;;;;;6158644;23;20019;-82
2021/01/20 06:07:10;;;;;;;11.38;4.30;;;0.50;90.60;;;;;;6159159;23;20134;-82
2021/01/20 06:09:41;;;;;;;11.20;4.70;;;0.50;90.50;;;;;;6183684;23;20005;-81
2021/01/20 06:12:09;;;;;;;10.63;4.60;;;0.50;90.50;;;;;;6183368;23;20012;-81
2021/01/20 06:14:35;;;;;;;10.00;4.38;;;0.60;90.50;;;;;;6185105;23;20447;-83
2021/01/20 06:17:14;;;;;;;11.25;3.83;;;0.60;90.40;;;;;;6183589;23;20016;-82
2021/01/20 06:19:49;;;;;;;12.10;4.75;;;0.60;90.50;;;;;;6183933;23;20001;-83
2021/01/20 06:22:17;;;;;;;;;;;0.60;90.50;;;;;;6187146;23;20343;-90
2021/01/20 06:24:52;;;;;;;10.98;4.32;;;0.70;90.50;;;;;;6190719;23;19911;-91
2021/01/20 06:27:50;;;;;;;11.55;4.82;;;0.70;90.30;;;;;;6186518;23;20327;-90
2021/01/20 06:30:31;;;;;;;12.30;4.57;;;0.60;90.20;;;;;;6196328;23;20087;-89
2021/01/20 06:33:03;;;;;;;11.63;4.47;;;0.70;90.30;;;;;;6187438;23;20029;-85
2021/01/20 06:35:43;;;;;;;9.75;4.43;;;0.60;90.20;;;;;;6187523;23;20059;-88
2021/01/20 06:38:28;;;;;;;10.95;4.90;;;0.60;90.30;;;;;;6162509;23;20012;-86
2021/01/20 06:40:57;;;;;;;11.32;4.45;;;0.60;90.40;;;;;;6185630;23;20005;-88
2021/01/20 06:43:50;;;;;;;11.70;4.88;;;0.60;90.30;;;;;;6185872;23;20005;-88
2021/01/20 06:46:28;;;;;;;11.38;3.92;;;0.60;90.50;;;;;;6180839;23;20005;-86
2021/01/20 06:48:53;;;;;;;12.18;5.20;;;0.70;90.50;;;;;;6185327;23;20125;-83
2021/01/20 06:51:26;;;;;;;14.27;4.68;;;0.70;90.40;;;;;;6185002;23;20028;-83
2021/01/20 06:54:13;;;;;;;14.57;5.70;;;0.70;90.40;;;;;;6186019;23;20420;-82
2021/01/20 06:56:48;;;;;;;12.30;5.32;;;0.70;90.40;;;;;;6180568;23;20017;-84
2021/01/20 06:59:24;;;;;;;13.40;6.47;;;0.70;90.40;;;;;;6131348;23;20040;-91
2021/01/20 07:02:02;;;;;;;11.35;5.07;;;0.70;90.50;;;;;;6132077;23;20013;-92
2021/01/20 07:04:37;;;;;;;12.38;5.05;;;0.70;90.40;;;;;;6132520;23;20029;-92
2021/01/20 07:07:07;;;;;;;;;;;0.80;90.40;;;;;;6142790;23;20013;-93
2021/01/20 07:09:51;;;;;;;11.77;5.15;;;0.70;90.40;;;;;;6146570;23;19947;-92
2021/01/20 07:12:18;;;;;;;13.82;5.88;;;0.70;90.40;;;;;;6146921;23;20009;-89
2021/01/20 07:14:45;;;;;;;15.00;5.53;;;0.70;90.40;;;;;;6154731;23;20012;-91
2021/01/20 07:17:12;;;;;;;11.93;5.10;;;0.70;90.40;;;;;;6154586;23;20020;-90
2021/01/20 07:19:38;;;;;;;11.98;4.90;;;0.70;90.40;;;;;;6108640;23;20455;-90
2021/01/20 07:22:06;;;;;;;11.60;5.05;;;0.70;90.30;;;;;;6133733;23;20012;-91
2021/01/20 07:24:32;;;;;;;12.38;5.43;;;0.70;90.30;;;;;;6132828;23;20009;-90
2021/01/20 07:27:17;;;;;;;11.48;5.15;;;0.70;90.30;;;;;;6110061;23;20001;-94
2021/01/20 07:29:43;;;;;;;10.32;4.20;;;0.60;90.30;;;;;;6133393;23;20009;-88
2021/01/20 07:32:08;;;;;;;11.55;4.78;;;0.70;90.40;;;;;;6132019;23;20093;-92
2021/01/20 07:34:41;;;;;;;13.45;5.35;;;0.80;90.50;;;;;;6133920;23;20502;-90
2021/01/20 07:37:16;;;;;;;11.48;5.28;;;0.80;90.60;;;;;;6137540;23;20093;-94
2021/01/20 07:39:45;;;;;;;11.88;4.70;;;0.80;90.50;;;;;;6141127;23;20006;-92
2021/01/20 07:42:12;;;;;;;12.35;5.00;;;0.80;90.40;;;;;;6140030;23;20006;-92
2021/01/20 07:44:48;;;;;;;12.02;4.63;;;0.80;90.40;;;;;;6137839;23;20060;-94
2021/01/20 07:47:14;;;;;;;9.93;4.50;;;0.80;90.50;;;;;;6137094;23;20072;-92
2021/01/20 07:49:53;;;;;;;12.48;4.65;;;0.80;90.40;;;;;;6135096;23;20006;-93
2021/01/20 07:52:19;;;;;;;10.88;4.68;;;0.80;90.50;;;;;;6140046;23;20099;-92
2021/01/20 07:54:49;;;;;;;9.05;4.13;;;0.90;90.60;;;;;;6146800;23;20025;-91
2021/01/20 07:57:17;;;;;;;16.13;4.97;;;0.90;90.60;;;;;;6162619;23;20035;-90
2021/01/20 07:59:44;;;;;;;10.45;4.78;;;0.90;90.50;;;;;;6199162;23;20013;-91
2021/01/20 08:02:11;;;;;;;10.70;4.28;;;0.90;90.50;;;;;;6192623;23;20005;-93
2021/01/20 08:04:37;;;;;;;11.23;4.38;;;1.00;90.70;;;;;;6189824;23;20001;-92
2021/01/20 08:07:05;;;;;;;11.18;4.65;;;0.90;90.50;;;;;;6191881;23;20001;-93
2021/01/20 08:09:39;;;;;;;12.40;4.13;;;0.90;90.50;;;;;;6190327;23;20012;-94
2021/01/20 08:12:07;;;;;;;11.57;4.32;;;0.90;90.50;;;;;;6186636;23;19997;-93
2021/01/20 08:14:41;;;;;;;14.27;4.78;;;1.00;90.70;;;;;;6188351;23;20009;-93
2021/01/20 08:17:08;;;;;;;10.27;4.67;;;1.10;90.70;;;;;;6191222;23;20449;-93
2021/01/20 08:19:34;;;;;;;14.23;4.32;;;1.00;90.70;;;;;;6193839;23;20236;-93
2021/01/20 08:22:12;;;;;;;12.25;4.70;;;1.10;90.70;;;;;;6191849;23;20088;-94
2021/01/20 08:24:43;;;;;;;11.55;4.55;;;1.10;90.70;;;;;;6192791;23;19997;-93
2021/01/20 08:27:11;;;;;;;16.27;4.28;;;1.20;90.80;;;;;;6185876;23;20009;-93
2021/01/20 08:29:49;;;;;;;10.20;4.30;;;1.20;90.90;;;;;;6186788;23;20005;-93
2021/01/20 08:32:16;;;;;;;15.60;4.88;;;1.30;90.90;;;;;;6187004;23;20019;-93
2021/01/20 08:34:46;;;;;;;13.35;5.10;;;1.40;90.80;;;;;;6187517;23;20041;-93
2021/01/20 08:37:18;;;;;;;14.02;6.13;;;1.40;90.90;;;;;;6191424;23;20028;-91
2021/01/20 08:39:58;;;;;;;16.23;5.55;;;1.40;90.90;;;;;;6194057;23;20012;-91
2021/01/20 08:42:30;;;;;;;14.63;5.28;;;1.50;90.90;;;;;;6188239;23;20001;-88
2021/01/20 08:45:12;;;;;;;15.98;6.28;;;1.60;91.10;;;;;;6191066;23;20020;-93
2021/01/20 08:47:59;;;;;;;13.82;5.70;;;1.70;91.20;;;;;;6195461;23;20001;-93
2021/01/20 08:50:43;;;;;;;25.60;6.43;;;1.80;91.20;;;;;;6192483;23;20016;-93
2021/01/20 08:53:25;;;;;;;14.35;6.45;;;2.00;91.30;;;;;;6190026;23;20001;-92
2021/01/20 08:55:53;;;;;;;16.02;5.25;;;2.10;91.20;;;;;;6179828;23;20012;-92
2021/01/20 08:58:18;;;;;;;14.82;5.82;;;2.00;91.10;;;;;;6184747;23;20523;-94
2021/01/20 09:00:45;;;;;;;16.50;6.25;;;2.20;91.20;;;;;;6156696;23;20032;-92
2021/01/20 09:03:13;;;;;;;13.27;5.25;;;2.10;91.20;;;;;;6181764;23;19998;-93
2021/01/20 09:05:38;;;;;;;14.75;5.88;;;2.30;91.20;;;;;;6180981;23;20455;-94
2021/01/20 09:08:04;;;;;;;14.65;5.70;;;2.40;91.40;;;;;;6184527;23;20006;-94
2021/01/20 09:10:30;;;;;;;14.70;6.82;;;2.40;91.40;;;;;;6158837;23;20065;-95
2021/01/20 09:12:56;;;;;;;12.55;5.38;;;2.50;91.40;;;;;;6183156;23;20420;-95
2021/01/20 09:15:21;;;;;;;19.42;6.10;;;2.60;91.40;;;;;;6181562;23;20006;-93
2021/01/20 09:17:48;;;;;;;18.98;5.65;;;2.70;91.50;;;;;;6182299;23;20001;-93
2021/01/20 09:20:14;;;;;;;12.95;5.47;;;2.70;91.50;;;;;;6183417;23;20435;-94
2021/01/20 09:22:39;;;;;;;12.15;5.03;;;2.80;91.50;;;;;;6185449;23;20492;-95
2021/01/20 09:25:08;;;;;;;13.00;4.93;;;2.80;91.60;;;;;;6132091;23;20017;-95
2021/01/20 09:27:34;;;;;;;11.80;4.45;;;3.00;91.60;;;;;;6187690;23;20017;-94
2021/01/20 09:30:06;;;;;;;8.38;3.53;;;3.20;91.80;;;;;;6194598;23;20510;-94
2021/01/20 09:32:40;;;;;;;6.85;3.17;;;3.40;92.20;;;;;;6148721;23;20005;-93
2021/01/20 09:35:14;;;;;;;8.10;3.17;;;3.60;92.20;;;;;;6172800;23;20017;-93
2021/01/20 09:45:16;;;;;;;6.45;2.83;;;4.10;92.10;;;;;;6074221;23;20454;-92
2021/01/20 09:47:43;;;;;;;8.00;2.88;;;4.30;92.20;;;;;;6043635;23;20085;-93
2021/01/20 09:50:12;;;;;;;7.68;3.20;;;4.40;92.20;;;;;;6176813;23;20424;-91
2021/01/20 09:52:43;;;;;;;6.18;2.80;;;4.70;92.30;;;;;;6181399;23;20072;-92
2021/01/20 09:55:09;;;;;;;7.10;2.47;;;4.90;92.30;;;;;;6180009;23;20102;-92
2021/01/20 09:58:15;;;;;;;5.78;2.65;;;5.10;92.30;;;;;;6179682;23;20474;-92
2021/01/20 10:00:41;;;;;;;7.07;2.47;;;5.30;92.30;;;;;;6137016;23;20028;-91
2021/01/20 10:03:09;;;;;;;6.22;2.70;;;5.50;92.30;;;;;;6179791;23;20013;-92
2021/01/20 10:05:48;;;;;;;8.90;3.08;;;5.60;92.20;;;;;;6182410;23;20038;-92
2021/01/20 10:08:22;;;;;;;6.78;2.47;;;5.80;92.00;;;;;;6179617;23;20001;-91
2021/01/20 10:10:48;;;;;;;5.88;2.47;;;5.80;91.90;;;;;;6179877;23;20001;-91
2021/01/20 10:13:14;;;;;;;7.10;2.53;;;5.80;92.00;;;;;;6181002;23;20071;-91
2021/01/20 10:15:40;;;;;;;7.47;2.60;;;5.90;91.70;;;;;;6156265;23;20432;-92
2021/01/20 10:18:06;;;;;;;6.25;2.40;;;6.00;91.80;;;;;;6155801;23;20090;-90
2021/01/20 10:20:32;;;;;;;6.28;2.45;;;6.10;92.00;;;;;;6180960;23;20013;-90
2021/01/20 10:22:58;;;;;;;6.97;2.60;;;6.20;92.20;;;;;;6179890;23;20015;-91
2021/01/20 10:25:31;;;;;;;4.10;2.20;;;6.40;92.40;;;;;;6132919;23;20368;-89
2021/01/20 10:27:59;;;;;;;5.53;2.35;;;6.70;92.60;;;;;;6175627;23;20002;-90
2021/01/20 10:30:28;;;;;;;4.05;2.08;;;6.90;92.40;;;;;;6176976;23;20020;-89
2021/01/20 10:32:54;;;;;;;6.45;2.30;;;7.10;92.30;;;;;;6179078;23;20324;-90
2021/01/20 10:35:20;;;;;;;7.38;3.33;;;7.30;92.30;;;;;;6132901;23;20021;-89
2021/01/20 10:37:47;;;;;;;5.22;2.20;;;7.40;92.10;;;;;;6155165;23;20424;-90
2021/01/20 10:40:14;;;;;;;5.03;2.25;;;7.50;91.80;;;;;;6179272;23;20428;-89
2021/01/20 10:42:40;;;;;;;5.97;2.30;;;7.60;92.40;;;;;;6156005;23;20009;-88
2021/01/20 10:45:06;;;;;;;7.65;2.60;;;8.00;92.80;;;;;;6179204;23;20009;-90
2021/01/20 10:47:33;;;;;;;6.30;2.42;;;8.40;93.00;;;;;;6179691;23;20005;-90
2021/01/20 10:49:59;;;;;;;6.93;2.42;;;8.70;92.90;;;;;;6179620;23;20013;-89
2021/01/20 10:52:26;;;;;;;5.63;2.33;;;9.00;93.00;;;;;;6179069;23;20073;-90
2021/01/20 10:54:53;;;;;;;7.93;1.98;;;9.50;92.90;;;;;;6154719;23;20014;-90
2021/01/20 10:57:18;;;;;;;4.88;2.13;;;9.70;92.70;;;;;;6154088;23;20523;-89
2021/01/20 10:59:44;;;;;;;4.53;2.17;;;9.90;92.40;;;;;;6166419;23;19998;-85
2021/01/20 11:02:10;;;;;;;6.35;1.85;;;10.20;92.30;;;;;;6202397;23;20029;-85
2021/01/20 11:04:36;;;;;;;4.28;1.80;;;10.30;91.90;;;;;;6174475;23;20006;-89
2021/01/20 11:07:01;;;;;;;5.18;2.10;;;10.30;91.80;;;;;;6181767;23;20009;-89
2021/01/20 11:09:30;;;;;;;5.65;2.50;;;10.40;91.80;;;;;;6182066;23;20430;-87
2021/01/20 11:11:59;;;;;;;3.85;1.80;;;10.40;91.50;;;;;;6158222;23;20006;-87
2021/01/20 11:15:26;;;;;;;;;;;;;;;;;;;;;
2021/01/20 11:17:52;;;;;;;3.78;2.05;;;10.40;91.80;;;;;;6154611;23;20076;-87
2021/01/20 11:20:18;;;;;;;5.25;1.80;;;10.70;92.20;;;;;;6158901;23;20009;-89
2021/01/20 11:22:44;;;;;;;4.30;1.85;;;10.80;92.20;;;;;;6157639;23;20036;-90
2021/01/20 11:25:11;;;;;;;4.50;2.00;;;11.00;92.20;;;;;;6183410;23;20005;-91
2021/01/20 11:27:41;;;;;;;5.30;2.00;;;11.30;92.20;;;;;;6184726;23;20004;-89
2021/01/20 11:30:07;;;;;;;3.58;1.95;;;11.30;92.00;;;;;;6162557;23;20336;-90
2021/01/20 11:32:35;;;;;;;5.55;2.00;;;11.30;91.60;;;;;;6158990;23;20336;-91
2021/01/20 11:35:01;;;;;;;4.68;1.92;;;11.30;91.60;;;;;;6181782;23;20014;-90
2021/01/20 11:37:27;;;;;;;4.40;2.10;;;11.20;91.10;;;;;;6181185;23;20443;-89
2021/01/20 11:40:01;;;;;;;3.60;1.98;;;11.10;91.20;;;;;;6180830;23;20520;-89
2021/01/20 11:42:26;;;;;;;3.00;1.77;;;11.10;91.40;;;;;;6133169;23;20005;-89
2021/01/20 11:44:54;;;;;;;3.47;2.00;;;11.10;91.40;;;;;;6131914;23;20387;-91
2021/01/20 11:47:20;;;;;;;4.68;2.00;;;11.10;91.50;;;;;;6157046;23;20060;-89
2021/01/20 11:49:45;;;;;;;5.63;2.10;;;11.10;91.70;;;;;;6181101;23;20009;-90
2021/01/20 11:52:12;;;;;;;4.72;2.08;;;11.10;91.70;;;;;;6180913;23;20483;-90
2021/01/20 11:54:39;;;;;;;4.82;1.90;;;11.10;91.50;;;;;;6107116;23;20022;-88
2021/01/20 11:57:05;;;;;;;2.63;1.70;;;11.30;91.90;;;;;;6180222;23;20403;-89
2021/01/20 11:59:33;;;;;;;3.72;1.75;;;11.40;92.10;;;;;;6181043;23;20057;-92
2021/01/20 12:01:59;;;;;;;5.90;2.38;;;11.50;91.90;;;;;;6132271;23;20076;-90
2021/01/20 12:04:25;;;;;;;4.07;1.98;;;11.70;92.10;;;;;;6181073;23;20436;-88
2021/01/20 12:06:50;;;;;;;4.03;1.83;;;11.80;92.40;;;;;;6132790;23;20067;-89
2021/01/20 12:09:16;;;;;;;4.18;1.80;;;12.20;92.70;;;;;;6156375;23;20006;-89
2021/01/20 12:11:41;;;;;;;3.63;1.80;;;12.40;92.40;;;;;;6132691;23;20012;-89
2021/01/20 12:14:07;;;;;;;3.90;1.80;;;12.50;92.00;;;;;;6181788;23;20071;-89
2021/01/20 12:16:36;;;;;;;4.50;1.80;;;12.50;91.40;;;;;;6182561;23;20006;-89
2021/01/20 12:19:05;;;;;;;5.50;1.90;;;12.30;90.90;;;;;;6180596;23;20017;-89
2021/01/20 12:21:31;;;;;;;2.85;1.80;;;12.10;91.00;;;;;;6179801;23;20425;-89
2021/01/20 12:24:05;;;;;;;3.17;1.83;;;12.00;90.70;;;;;;6181444;23;20010;-88
2021/01/20 12:26:31;;;;;;;3.33;1.95;;;11.80;91.10;;;;;;6180496;23;20001;-88
2021/01/20 12:28:57;;;;;;;7.05;2.33;;;11.70;91.30;;;;;;6181180;23;20014;-89
2021/01/20 12:31:23;;;;;;;3.75;2.08;;;11.70;91.30;;;;;;6183134;23;20005;-91
2021/01/20 12:34:01;;;;;;;5.88;2.15;;;11.70;91.30;;;;;;6186171;23;20010;-89
2021/01/20 12:36:29;;;;;;;5.85;2.13;;;11.70;91.50;;;;;;6157503;23;20010;-89
2021/01/20 12:38:55;;;;;;;5.40;1.80;;;11.70;91.50;;;;;;6181256;23;20005;-91
2021/01/20 12:41:21;;;;;;;2.55;1.67;;;11.90;92.00;;;;;;6181030;23;20084;-89
2021/01/20 12:43:46;;;;;;;8.43;2.13;;;12.00;91.90;;;;;;6181066;23;20001;-92
2021/01/20 12:46:12;;;;;;;3.60;1.90;;;11.90;91.70;;;;;;6180879;23;20096;-91
2021/01/20 12:48:39;;;;;;;7.07;1.98;;;11.90;91.40;;;;;;6182742;23;20002;-90
2021/01/20 12:51:04;;;;;;;5.10;2.10;;;11.90;91.50;;;;;;6131505;23;20020;-91
2021/01/20 12:53:31;;;;;;;3.70;1.83;;;11.90;91.50;;;;;;6106738;23;20104;-91
2021/01/20 12:55:57;;;;;;;4.70;1.90;;;12.00;91.60;;;;;;6181162;23;20058;-91
2021/01/20 12:58:22;;;;;;;4.88;2.28;;;12.10;92.30;;;;;;6180768;23;20021;-92
2021/01/20 13:01:07;;;;;;;3.70;1.92;;;12.30;91.90;;;;;;6180923;23;20006;-93
2021/01/20 13:03:36;;;;;;;2.50;1.80;;;12.40;92.00;;;;;;6163142;23;20081;-93
2021/01/20 13:06:02;;;;;;;4.20;1.65;;;12.70;93.00;;;;;;6180597;23;20005;-92
2021/01/20 13:08:27;;;;;;;2.72;1.80;;;13.00;92.40;;;;;;6180644;23;20017;-92